Time;durP1;ratioP1;P1;durP2;ratioP2;P2;SDS_P1;SDS_P2;PMS_P1;PMS_P2;Temp;Humidity;BMP_temperature;BMP_pressure;BME280_temperature;BME280_humidity;BME280_pressure;Samples;Min_cycle;Max_cycle;Signal;HPM_P1;HPM_P2
2022/01/16 00:04:05;;;;;;;;;88.50;68.75;;;;;3.56;55.90;102533.44;5057686;28;45313;-80
2022/01/16 00:04:42;;;;;;;;;65.00;49.00;;;;;3.57;55.91;102535.22;5042576;28;45797;-80
2022/01/16 00:07:07;;;;;;;;;68.00;51.50;;;;;3.55;56.78;102526.50;5058700;28;45426;-80
2022/01/16 00:09:35;;;;;;;;;64.00;48.75;;;;;3.60;56.81;102516.22;5061018;28;45404;-80
2022/01/16 00:12:04;;;;;;;;;61.75;46.50;;;;;3.63;56.60;102508.47;5057328;28;46323;-80
2022/01/16 00:14:30;;;;;;;;;62.50;46.75;;;;;3.63;56.18;102510.22;5061342;28;45217;-80
2022/01/16 00:16:55;;;;;;;;;65.00;49.50;;;;;3.66;55.93;102537.16;5061002;28;45259;-81
2022/01/16 00:19:21;;;;;;;;;66.50;48.25;;;;;3.65;56.77;102527.63;5061201;28;45480;-81
2022/01/16 00:21:46;;;;;;;;;64.00;47.00;;;;;3.64;56.34;102507.63;5057130;28;45311;-81
2022/01/16 00:24:12;;;;;;;;;61.00;47.00;;;;;3.61;56.55;102504.94;5059583;28;45223;-81
2022/01/16 00:26:38;;;;;;;;;59.00;47.50;;;;;3.62;56.04;102518.84;5060901;28;45497;-81
2022/01/16 00:29:07;;;;;;;;;60.50;47.25;;;;;3.66;56.32;102538.88;5060654;28;45268;-84
2022/01/16 00:31:34;;;;;;;;;56.00;42.25;;;;;3.61;56.57;102549.16;5056718;28;45462;-84
2022/01/16 00:33:59;;;;;;;;;68.00;49.75;;;;;3.66;56.54;102565.75;5058967;28;45881;-84
2022/01/16 00:36:25;;;;;;;;;59.25;45.75;;;;;3.69;56.67;102572.78;5059737;28;45277;-84
2022/01/16 00:38:53;;;;;;;;;63.00;48.00;;;;;3.71;56.60;102574.56;5060109;28;45375;-84
2022/01/16 00:41:19;;;;;;;;;61.50;46.00;;;;;3.73;56.83;102527.78;5060627;28;46439;-86
2022/01/16 00:43:46;;;;;;;;;61.00;48.50;;;;;3.74;56.55;102534.75;5059600;28;45733;-85
2022/01/16 00:46:11;;;;;;;;;62.00;49.00;;;;;3.75;56.94;102540.84;5058622;28;45421;-86
2022/01/16 00:48:37;;;;;;;;;58.50;42.50;;;;;3.74;57.31;102533.88;5060467;28;45294;-85
2022/01/16 00:51:03;;;;;;;;;62.75;47.50;;;;;3.74;57.07;102555.56;5060782;28;45484;-85
2022/01/16 00:53:28;;;;;;;;;58.75;43.50;;;;;3.76;57.64;102553.88;5057268;28;46071;-88
2022/01/16 00:55:53;;;;;;;;;61.25;47.50;;;;;3.79;57.32;102569.56;5060723;28;45235;-87
2022/01/16 00:58:19;;;;;;;;;60.50;45.75;;;;;3.79;57.34;102555.66;5060737;28;45200;-85
2022/01/16 01:00:44;;;;;;;;;64.50;45.50;;;;;3.81;57.30;102567.88;5060486;28;45249;-86
2022/01/16 01:03:11;;;;;;;;;60.75;47.50;;;;;3.80;57.33;102599.94;5060290;28;45323;-85
2022/01/16 01:05:37;;;;;;;;;66.00;47.00;;;;;3.83;57.28;102594.81;5058813;28;45412;-87
2022/01/16 01:08:04;;;;;;;;;66.00;45.75;;;;;3.82;57.07;102621.69;5058815;28;46187;-87
2022/01/16 01:10:35;;;;;;;;;54.00;41.50;;;;;3.79;57.19;102595.56;5059584;28;46123;-86
2022/01/16 01:15:49;;;;;;;;;54.00;43.00;;;;;3.78;56.83;102586.00;5060252;28;45410;-86
2022/01/16 01:18:20;;;;;;;;;68.50;50.00;;;;;3.74;56.66;102615.38;5060323;28;45484;-83
2022/01/16 01:20:48;;;;;;;;;63.50;47.25;;;;;3.76;56.47;102589.41;5059607;28;46249;-84
2022/01/16 01:23:14;;;;;;;;;57.00;45.00;;;;;3.77;57.50;102545.25;5056210;28;45871;-84
2022/01/16 01:25:42;;;;;;;;;58.25;44.00;;;;;3.78;57.75;102520.97;5060389;28;45527;-84
2022/01/16 01:28:08;;;;;;;;;59.75;43.25;;;;;3.82;56.80;102511.53;5058477;28;45509;-84
2022/01/16 01:30:34;;;;;;;;;58.00;44.00;;;;;3.80;57.31;102502.81;5059152;28;46112;-86
2022/01/16 01:32:59;;;;;;;;;60.75;45.25;;;;;3.80;57.41;102493.28;5059110;28;45275;-83
2022/01/16 01:35:25;;;;;;;;;55.50;42.25;;;;;3.79;57.13;102506.25;5060050;28;45293;-87
2022/01/16 01:37:51;;;;;;;;;58.25;44.00;;;;;3.79;57.47;102533.16;5058245;28;46421;-86
2022/01/16 01:40:24;;;;;;;;;57.00;42.25;;;;;3.80;57.20;102560.06;5059661;28;45334;-80
2022/01/16 01:51:32;;;;;;;;;61.25;41.50;;;;;3.79;56.88;102598.19;5016622;28;45450;-83
2022/01/16 01:53:58;;;;;;;;;59.75;43.00;;;;;3.77;57.05;102618.06;5053604;28;45318;-82
2022/01/16 01:56:25;;;;;;;;;60.25;44.25;;;;;3.80;57.12;102612.94;5059967;28;45241;-85
2022/01/16 01:58:53;;;;;;;;;58.25;46.25;;;;;3.77;57.18;102612.88;5058494;28;47177;-85
2022/01/16 02:01:18;;;;;;;;;59.25;44.50;;;;;3.72;57.09;102622.28;5058699;28;46205;-85
2022/01/16 02:03:44;;;;;;;;;61.75;45.75;;;;;3.70;56.50;102637.81;5058227;28;45636;-86
2022/01/16 02:06:12;;;;;;;;;61.75;47.00;;;;;3.71;56.87;102633.50;5059639;28;45539;-87
2022/01/16 02:08:38;;;;;;;;;59.50;44.00;;;;;3.71;57.87;102656.91;5058515;28;45301;-87
2022/01/16 02:11:03;;;;;;;;;55.75;43.00;;;;;3.74;57.48;102659.59;5058009;28;48311;-86
2022/01/16 02:13:36;;;;;;;;;56.00;44.00;;;;;3.69;57.27;102659.47;5053178;28;45243;-86
2022/01/16 02:35:03;;;;;;;;;63.00;45.50;;;;;3.73;57.47;102652.63;5039959;28;45886;-84
2022/01/16 02:37:28;;;;;;;;;58.25;43.00;;;;;3.75;57.94;102648.38;5059302;28;45446;-84
2022/01/16 02:40:00;;;;;;;;;61.00;42.75;;;;;3.75;57.42;102650.97;5058026;28;45469;-83
2022/01/16 02:42:28;;;;;;;;;60.50;45.75;;;;;3.76;57.70;102636.22;5058787;28;45485;-83
2022/01/16 02:45:02;;;;;;;;;64.00;46.75;;;;;3.78;58.56;102635.44;5056010;28;45856;-83
2022/01/16 02:47:27;;;;;;;;;56.25;42.25;;;;;3.81;57.79;102622.50;5059263;28;45460;-83
2022/01/16 02:49:53;;;;;;;;;62.00;44.00;;;;;3.79;58.04;102618.09;5057936;28;45331;-84
2022/01/16 02:52:21;;;;;;;;;63.50;43.50;;;;;3.82;58.48;102626.00;5059035;28;46484;-84
2022/01/16 02:54:50;;;;;;;;;59.25;45.00;;;;;3.86;58.38;102600.94;5058719;28;45402;-85
2022/01/16 02:57:20;;;;;;;;;59.50;43.75;;;;;3.87;58.65;102611.38;5059216;28;45364;-84
2022/01/16 02:59:52;;;;;;;;;61.00;43.50;;;;;3.87;58.32;102614.00;5047280;28;45472;-84
2022/01/16 03:02:20;;;;;;;;;57.50;42.00;;;;;3.89;58.75;102621.81;5062546;28;45661;-84
2022/01/16 03:04:46;;;;;;;;;63.75;47.00;;;;;3.90;58.78;102613.19;5060855;28;45779;-83
2022/01/16 03:07:12;;;;;;;;;62.00;48.25;;;;;3.94;58.40;102625.44;5062464;28;45307;-83
2022/01/16 03:10:01;;;;;;;;;57.50;46.00;;;;;3.94;58.60;102607.22;5061284;28;45377;-83
2022/01/16 03:12:26;;;;;;;;;61.00;46.50;;;;;3.93;58.79;102598.53;5051377;28;45421;-83
2022/01/16 03:14:52;;;;;;;;;59.00;46.00;;;;;3.95;58.62;102593.38;5062209;28;45237;-83
2022/01/16 03:17:34;;;;;;;;;52.25;38.50;;;;;3.93;58.59;102595.91;5062497;28;45227;-84
2022/01/16 03:22:43;;;;;;;;;63.00;46.75;;;;;3.94;58.56;102589.00;5061737;28;45386;-82
2022/01/16 03:25:09;;;;;;;;;63.75;50.00;;;;;3.93;59.11;102587.22;5062035;28;45397;-82
2022/01/16 03:27:36;;;;;;;;;58.50;44.00;;;;;3.94;59.09;102583.81;5061713;28;45278;-82
2022/01/16 03:30:01;;;;;;;;;63.50;50.75;;;;;3.97;58.63;102583.88;5061589;28;45386;-82
2022/01/16 03:32:27;;;;;;;;;64.75;48.25;;;;;3.94;59.49;102589.88;5060218;28;47029;-82
2022/01/16 03:34:52;;;;;;;;;66.75;48.00;;;;;3.95;58.94;102580.38;5051744;28;45174;-81
2022/01/16 03:37:17;;;;;;;;;65.00;48.00;;;;;3.97;59.00;102588.19;5060727;28;45299;-80
2022/01/16 03:39:43;;;;;;;;;66.00;47.50;;;;;4.00;59.19;102599.53;5061395;28;45272;-88
2022/01/16 03:42:09;;;;;;;;;62.00;48.75;;;;;3.98;59.03;102603.84;5060714;28;46182;-86
2022/01/16 03:44:34;;;;;;;;;65.25;48.00;;;;;3.99;58.79;102605.63;5052242;28;45433;-86
2022/01/16 03:47:00;;;;;;;;;56.50;41.50;;;;;3.96;58.78;102615.03;5061325;28;45406;-86
2022/01/16 03:49:28;;;;;;;;;64.25;45.25;;;;;3.98;59.23;102622.06;5061649;28;45405;-86
2022/01/16 03:51:55;;;;;;;;;63.50;48.75;;;;;3.96;59.55;102618.53;5059960;28;48091;-86
2022/01/16 03:54:24;;;;;;;;;64.25;47.50;;;;;3.98;59.22;102608.16;5060814;28;45403;-82
2022/01/16 03:56:50;;;;;;;;;63.50;46.75;;;;;3.97;59.18;102593.41;5061717;28;45343;-82
2022/01/16 03:59:16;;;;;;;;;64.25;48.75;;;;;3.94;59.31;102594.19;5061659;28;45453;-82
2022/01/16 04:01:42;;;;;;;;;62.75;44.00;;;;;3.97;59.07;102607.31;5056795;28;45396;-82
2022/01/16 04:04:08;;;;;;;;;65.75;48.00;;;;;3.93;59.11;102597.63;5060814;28;45405;-82
2022/01/16 04:06:34;;;;;;;;;64.25;48.25;;;;;3.93;59.13;102608.94;5061393;28;45451;-82
2022/01/16 04:09:00;;;;;;;;;62.75;46.25;;;;;3.95;59.25;102616.78;5061423;28;45463;-82
2022/01/16 04:11:27;;;;;;;;;65.75;49.75;;;;;3.94;59.13;102621.13;5060899;28;45406;-81
2022/01/16 04:14:05;;;;;;;;;65.50;48.00;;;;;3.96;59.60;102625.47;5050975;28;45206;-82
2022/01/16 04:16:32;;;;;;;;;57.00;44.00;;;;;3.93;58.96;102618.44;5060790;28;45272;-82
2022/01/16 04:18:58;;;;;;;;;62.50;49.25;;;;;3.94;59.13;102620.22;5061370;28;45489;-83
2022/01/16 04:21:26;;;;;;;;;64.75;48.00;;;;;3.96;59.29;102631.53;5059511;28;47160;-88
2022/01/16 04:23:53;;;;;;;;;65.00;49.00;;;;;3.93;60.00;102627.16;5059328;28;45241;-86
2022/01/16 04:26:19;;;;;;;;;62.75;47.00;;;;;3.95;59.68;102640.22;5061238;28;45209;-86
2022/01/16 04:28:48;;;;;;;;;62.25;41.50;;;;;3.98;58.95;102641.97;5060525;28;45472;-86
2022/01/16 04:31:15;;;;;;;;;63.25;43.50;;;;;3.94;59.50;102631.53;5055579;28;46756;-86
2022/01/16 04:33:41;;;;;;;;;65.25;49.75;;;;;3.96;59.43;102646.28;5051007;28;45800;-86
2022/01/16 04:36:08;;;;;;;;;62.50;47.50;;;;;3.97;59.66;102658.47;5059778;28;45452;-88
2022/01/16 04:38:36;;;;;;;;;65.50;47.25;;;;;3.94;59.88;102661.84;5058490;28;45302;-86
2022/01/16 04:43:48;;;;;;;;;65.25;47.50;;;;;3.88;59.43;102672.09;5050868;28;45330;-83
2022/01/16 04:46:18;;;;;;;;;70.50;50.50;;;;;3.86;60.37;102672.06;5060965;28;45416;-83
2022/01/16 04:48:44;;;;;;;;;54.25;42.50;;;;;3.80;59.49;102671.91;5060365;28;45849;-85
2022/01/16 04:51:10;;;;;;;;;64.00;47.00;;;;;3.79;60.02;102677.94;5060754;28;45393;-85
2022/01/16 04:53:37;;;;;;;;;63.50;50.00;;;;;3.82;59.68;102655.50;5059128;28;45480;-80
2022/01/16 04:56:03;;;;;;;;;63.50;49.75;;;;;3.81;60.14;102661.53;5056143;28;45366;-84
2022/01/16 04:58:29;;;;;;;;;60.25;46.75;;;;;3.81;59.55;102669.34;5056543;28;45462;-80
2022/01/16 05:00:55;;;;;;;;;60.50;47.50;;;;;3.82;60.19;102660.72;5058980;28;47299;-85
2022/01/16 05:03:21;;;;;;;;;66.00;48.75;;;;;3.82;60.42;102655.50;5059775;28;45678;-85
2022/01/16 05:05:47;;;;;;;;;62.00;45.25;;;;;3.80;59.81;102659.75;5060679;28;45287;-81
2022/01/16 05:08:12;;;;;;;;;64.00;48.25;;;;;3.81;60.31;102671.94;5060031;28;45263;-83
2022/01/16 05:10:38;;;;;;;;;62.00;45.25;;;;;3.85;60.20;102677.22;5059852;28;45196;-82
2022/01/16 05:13:29;;;;;;;;;63.75;47.75;;;;;3.83;60.08;102671.97;5059702;28;45231;-84
2022/01/16 05:18:41;;;;;;;;;64.00;47.25;;;;;3.80;60.11;102690.13;5059349;28;46528;-82
2022/01/16 05:21:07;;;;;;;;;66.50;43.75;;;;;3.78;60.44;102692.66;5048841;28;46484;-82
2022/01/16 05:23:33;;;;;;;;;67.75;48.00;;;;;3.71;60.43;102690.72;5058247;28;45497;-82
2022/01/16 05:26:00;;;;;;;;;70.75;51.25;;;;;3.67;60.71;102694.09;5060396;28;45152;-85
2022/01/16 05:28:26;;;;;;;;;58.75;46.00;;;;;3.67;60.73;102699.28;5059884;28;45421;-85
2022/01/16 05:30:51;;;;;;;;;63.50;47.50;;;;;3.65;60.68;102701.88;5057991;28;45423;-85
2022/01/16 05:33:16;;;;;;;;;67.75;50.50;;;;;3.64;60.41;102707.00;5059992;28;45249;-85
2022/01/16 05:35:42;;;;;;;;;69.50;47.50;;;;;3.61;61.03;102710.41;5049435;28;45259;-86
2022/01/16 05:38:09;;;;;;;;;69.50;43.75;;;;;3.62;61.43;102713.88;5059855;28;45445;-88
2022/01/16 05:40:34;;;;;;;;;62.25;45.75;;;;;3.66;61.27;102723.53;5055170;28;47309;-83
2022/01/16 05:43:01;;;;;;;;;68.50;46.75;;;;;3.62;61.21;102727.78;5054653;28;45224;-83
2022/01/16 05:45:26;;;;;;;;;61.50;48.25;;;;;3.63;61.11;102728.66;5059139;28;45469;-84
2022/01/16 05:47:52;;;;;;;;;58.00;42.25;;;;;3.57;61.12;102721.56;5059660;28;45271;-88
2022/01/16 05:50:17;;;;;;;;;62.75;48.75;;;;;3.59;61.59;102731.16;5059296;28;45244;-88
2022/01/16 05:52:43;;;;;;;;;62.75;44.25;;;;;3.59;61.17;102718.16;5049252;28;45154;-87
2022/01/16 05:55:09;;;;;;;;;54.25;43.50;;;;;3.63;61.39;102707.84;5059923;28;45231;-86
2022/01/16 05:57:35;;;;;;;;;59.00;43.75;;;;;3.61;62.00;102700.00;5059917;28;45402;-86
2022/01/16 06:00:00;;;;;;;;;53.25;38.75;;;;;3.63;61.51;102703.50;5059371;28;46142;-86
2022/01/16 06:02:27;;;;;;;;;49.75;39.25;;;;;3.64;62.08;102720.00;5058841;28;45641;-85
2022/01/16 06:04:52;;;;;;;;;57.25;41.25;;;;;3.68;61.78;102732.28;5059844;28;45452;-85
2022/01/16 06:07:19;;;;;;;;;56.25;42.25;;;;;3.66;61.69;102727.00;5059523;28;45499;-86
2022/01/16 06:09:45;;;;;;;;;52.75;36.75;;;;;3.65;62.11;102726.97;5050712;28;45500;-86
2022/01/16 06:12:11;;;;;;;;;51.25;38.25;;;;;3.65;62.38;102732.19;5054755;28;45236;-85
2022/01/16 06:14:36;;;;;;;;;54.75;43.00;;;;;3.63;61.70;102726.91;5059757;28;45224;-87
2022/01/16 06:17:02;;;;;;;;;60.00;43.00;;;;;3.64;61.83;102731.28;5059659;28;45434;-92
2022/01/16 06:19:28;;;;;;;;;50.75;39.50;;;;;3.66;62.67;102728.72;5059084;28;48317;-92
2022/01/16 06:21:53;;;;;;;;;55.00;42.50;;;;;3.63;62.60;102739.06;5058338;28;45234;-89
2022/01/16 06:24:18;;;;;;;;;55.50;39.75;;;;;3.67;62.45;102762.59;5059220;28;45144;-87
2022/01/16 06:26:44;;;;;;;;;58.75;41.25;;;;;3.67;62.36;102748.72;5059429;28;45504;-85
2022/01/16 06:29:09;;;;;;;;;57.50;38.50;;;;;3.68;62.37;102753.09;5059163;28;46139;-86
2022/01/16 06:31:35;;;;;;;;;50.00;39.25;;;;;3.66;62.65;102749.53;5057192;28;45733;-86
2022/01/16 06:34:02;;;;;;;;;46.75;35.50;;;;;3.66;62.55;102750.44;5059672;28;45287;-86
2022/01/16 06:36:28;;;;;;;;;41.50;32.75;;;;;3.69;62.11;102762.63;5049847;28;45355;-85
2022/01/16 06:38:54;;;;;;;;;43.00;31.25;;;;;3.69;62.78;102762.63;5061974;28;45346;-86
2022/01/16 06:41:20;;;;;;;;;33.50;31.50;;;;;3.70;62.41;102756.63;5062357;28;45768;-85
2022/01/16 06:43:46;;;;;;;;;39.50;30.75;;;;;3.70;62.14;102761.81;5063037;28;45270;-84
2022/01/16 06:46:11;;;;;;;;;40.25;31.50;;;;;3.68;63.02;102747.88;5061189;28;47166;-82
2022/01/16 06:48:37;;;;;;;;;39.50;30.75;;;;;3.70;62.66;102761.81;5062662;28;46047;-81
2022/01/16 06:51:03;;;;;;;;;44.75;34.00;;;;;3.70;62.58;102769.63;5051762;28;45239;-81
2022/01/16 06:53:29;;;;;;;;;40.00;30.00;;;;;3.70;63.21;102767.00;5062626;28;45343;-80
2022/01/16 06:55:54;;;;;;;;;42.75;31.25;;;;;3.71;63.19;102772.25;5060750;28;45394;-81
2022/01/16 06:58:20;;;;;;;;;48.00;37.00;;;;;3.75;63.24;102774.94;5052656;28;46286;-81
2022/01/16 07:00:47;;;;;;;;;42.25;35.75;;;;;3.75;63.48;102774.94;5062037;28;45436;-81
2022/01/16 07:03:13;;;;;;;;;42.75;31.75;;;;;3.75;63.11;102778.44;5062045;28;45535;-81
2022/01/16 07:05:39;;;;;;;;;44.75;34.00;;;;;3.77;63.04;102784.56;5062389;28;45499;-80
2022/01/16 07:08:05;;;;;;;;;42.50;32.50;;;;;3.80;63.37;102788.97;5061148;28;46192;-80
2022/01/16 07:10:30;;;;;;;;;45.50;34.25;;;;;3.82;63.23;102793.38;5062452;28;45382;-80
2022/01/16 07:12:56;;;;;;;;;48.50;33.50;;;;;3.84;63.42;102796.03;5061894;28;45196;-85
2022/01/16 07:15:21;;;;;;;;;36.50;30.75;;;;;3.87;63.30;102800.44;5061088;28;45438;-77
2022/01/16 07:17:46;;;;;;;;;43.25;33.50;;;;;3.88;63.56;102817.78;5062086;28;45232;-80
2022/01/16 07:20:14;;;;;;;;;36.25;29.75;;;;;3.92;63.08;102825.75;5058640;28;45339;-80
2022/01/16 07:22:39;;;;;;;;;40.50;31.00;;;;;3.95;62.98;102814.56;5061716;28;45578;-81
2022/01/16 07:25:05;;;;;;;;;50.75;35.00;;;;;3.98;63.37;102813.72;5061584;28;45385;-80
2022/01/16 07:27:30;;;;;;;;;39.50;32.00;;;;;3.99;63.34;102811.19;5061911;28;46545;-77
2022/01/16 07:29:56;;;;;;;;;40.50;32.75;;;;;3.98;63.27;102832.84;5061844;28;45441;-79
2022/01/16 07:32:21;;;;;;;;;34.75;29.00;;;;;4.00;63.35;102823.34;5054647;28;45338;-78
2022/01/16 07:34:46;;;;;;;;;36.50;29.25;;;;;4.03;63.37;102814.75;5059142;28;45482;-78
2022/01/16 07:37:12;;;;;;;;;28.50;24.75;;;;;4.04;63.80;102799.19;5050620;28;46449;-79
2022/01/16 07:39:37;;;;;;;;;28.75;26.75;;;;;4.01;63.70;102788.69;5050710;28;45680;-79
2022/01/16 07:42:03;;;;;;;;;41.50;29.50;;;;;3.99;63.86;102794.69;5049613;28;45435;-79
2022/01/16 07:44:29;;;;;;;;;39.00;26.50;;;;;3.92;64.13;102804.06;5059211;28;45364;-79
2022/01/16 07:46:54;;;;;;;;;33.00;29.25;;;;;3.91;63.87;102818.78;5054847;28;45399;-79
2022/01/16 07:49:20;;;;;;;;;40.50;31.00;;;;;3.91;65.07;102823.97;5044012;28;45196;-79
2022/01/16 07:51:45;;;;;;;;;32.00;28.50;;;;;3.82;63.82;102822.00;5056277;28;45199;-78
2022/01/16 07:54:10;;;;;;;;;35.75;30.00;;;;;3.83;64.10;102826.34;5052392;28;45662;-79
2022/01/16 07:56:36;;;;;;;;;37.75;29.50;;;;;3.87;64.41;102829.94;5055354;28;45475;-79
2022/01/16 07:59:01;;;;;;;;;33.50;27.75;;;;;3.93;63.82;102829.22;5045649;28;45468;-78
2022/01/16 08:01:27;;;;;;;;;45.00;31.50;;;;;3.96;64.76;102813.69;5060561;28;45429;-78
2022/01/16 08:03:52;;;;;;;;;38.75;30.75;;;;;3.99;64.75;102811.19;5055841;28;45456;-77
2022/01/16 08:06:17;;;;;;;;;33.75;27.75;;;;;4.00;64.30;102807.72;5051345;28;46228;-77
2022/01/16 08:08:43;;;;;;;;;41.75;27.25;;;;;4.04;64.04;102809.59;5052212;28;45252;-77
2022/01/16 08:11:09;;;;;;;;;41.25;31.75;;;;;4.08;64.65;102810.56;5055971;28;45468;-79
2022/01/16 08:13:35;;;;;;;;;39.50;35.00;;;;;4.07;64.78;102826.13;5042720;28;45410;-77
2022/01/16 08:16:03;;;;;;;;;43.25;29.50;;;;;4.04;64.14;102816.53;5057783;28;45422;-77
2022/01/16 08:18:29;;;;;;;;;50.50;33.50;;;;;4.07;64.48;102815.72;5054644;28;46769;-77
2022/01/16 08:20:54;;;;;;;;;46.50;29.25;;;;;4.11;64.65;102822.78;5057691;28;45583;-77
2022/01/16 08:23:20;;;;;;;;;36.00;29.25;;;;;4.11;64.08;102830.59;5058833;28;45356;-77
2022/01/16 08:25:45;;;;;;;;;33.75;26.25;;;;;4.09;64.59;102825.34;5058070;28;46182;-77
2022/01/16 08:28:11;;;;;;;;;38.50;32.25;;;;;4.15;64.63;102833.31;5053174;28;45208;-77
2022/01/16 08:30:36;;;;;;;;;40.00;31.75;;;;;4.16;64.26;102845.50;5048787;28;45217;-77
2022/01/16 08:33:01;;;;;;;;;39.75;29.00;;;;;4.20;64.62;102837.78;5056533;28;45596;-77
2022/01/16 08:35:27;;;;;;;;;33.25;27.00;;;;;4.19;64.44;102829.09;5058652;28;45377;-77
2022/01/16 08:37:52;;;;;;;;;39.50;30.75;;;;;4.21;64.67;102826.50;5053153;28;45361;-77
2022/01/16 08:40:18;;;;;;;;;44.00;32.75;;;;;4.28;64.82;102833.66;5055260;28;45270;-77
2022/01/16 08:42:44;;;;;;;;;40.75;34.00;;;;;4.24;64.70;102826.59;5045158;28;45508;-77
2022/01/16 08:45:09;;;;;;;;;45.00;37.00;;;;;4.31;65.01;102836.34;5052808;28;46454;-78
2022/01/16 08:47:35;;;;;;;;;44.25;35.00;;;;;4.31;65.00;102838.06;5051017;28;45438;-77
2022/01/16 08:50:02;;;;;;;;;46.50;36.00;;;;;4.31;64.52;102845.88;5050768;28;45792;-77
2022/01/16 08:52:28;;;;;;;;;44.33;33.67;;;;;4.34;64.96;102836.44;5055589;28;45271;-77
2022/01/16 08:54:54;;;;;;;;;30.50;28.25;;;;;4.36;65.09;102842.56;5052392;28;45420;-77
2022/01/16 08:57:19;;;;;;;;;35.00;31.25;;;;;4.32;65.35;102842.44;5057002;28;45399;-79
2022/01/16 08:59:45;;;;;;;;;43.00;33.00;;;;;4.32;65.19;102845.91;5053068;28;45217;-77
2022/01/16 09:02:11;;;;;;;;;36.75;30.75;;;;;4.36;65.16;102849.50;5047392;28;45475;-77
2022/01/16 09:04:36;;;;;;;;;36.00;29.50;;;;;4.39;64.80;102857.41;5050311;28;45467;-77
2022/01/16 09:07:01;;;;;;;;;44.25;34.25;;;;;4.41;64.68;102857.44;5054376;28;45453;-77
2022/01/16 09:09:27;;;;;;;;;41.75;30.25;;;;;4.43;65.52;102859.22;5057970;28;45441;-77
2022/01/16 09:11:52;;;;;;;;;44.25;32.25;;;;;4.46;65.00;102854.13;5048078;28;45480;-77
2022/01/16 09:14:18;;;;;;;;;25.75;19.75;;;;;4.46;64.66;102859.31;5050940;28;46663;-78
2022/01/16 09:16:43;;;;;;;;;27.75;26.00;;;;;4.47;64.22;102866.28;5054229;28;45346;-77
2022/01/16 09:19:09;;;;;;;;;39.00;26.75;;;;;4.52;64.29;102878.56;5060470;28;45351;-77
2022/01/16 09:21:35;;;;;;;;;33.00;27.25;;;;;4.50;64.62;102884.59;5059113;28;45348;-77
2022/01/16 09:24:00;;;;;;;;;32.50;26.00;;;;;4.50;64.19;102891.53;5059098;28;46193;-78
2022/01/16 09:26:27;;;;;;;;;32.50;28.25;;;;;4.55;64.59;102889.03;5059994;28;45395;-78
2022/01/16 09:28:53;;;;;;;;;35.00;28.50;;;;;4.58;64.32;102894.34;5058327;28;45496;-78
2022/01/16 09:31:19;;;;;;;;;34.00;30.00;;;;;4.63;64.38;102897.97;5060324;28;45308;-77
2022/01/16 09:33:44;;;;;;;;;33.25;25.50;;;;;4.63;64.37;102882.34;5059547;28;46374;-77
2022/01/16 09:36:10;;;;;;;;;35.75;29.25;;;;;4.59;63.84;102880.50;5060170;28;45221;-77
2022/01/16 09:38:39;;;;;;;;;34.75;29.25;;;;;4.62;64.05;102893.59;5055533;28;45286;-77
2022/01/16 09:41:05;;;;;;;;;29.00;23.25;;;;;4.61;64.10;102894.44;5059881;28;45334;-77
2022/01/16 09:43:33;;;;;;;;;28.00;25.25;;;;;4.57;64.10;102903.00;5061139;28;45449;-77
2022/01/16 09:46:00;;;;;;;;;30.50;27.00;;;;;4.56;64.00;102899.53;5063132;28;45429;-76
2022/01/16 09:48:25;;;;;;;;;29.75;23.00;;;;;4.55;63.79;102899.47;5059639;28;45833;-77
2022/01/16 09:50:51;;;;;;;;;25.75;23.50;;;;;4.56;64.38;102901.25;5058921;28;45386;-76
2022/01/16 09:53:17;;;;;;;;;28.75;23.00;;;;;4.65;64.50;102900.59;5059368;28;45397;-76
2022/01/16 09:55:42;;;;;;;;;27.75;25.25;;;;;4.67;64.07;102891.97;5059588;28;45504;-76
2022/01/16 09:58:08;;;;;;;;;32.00;25.50;;;;;4.75;64.57;102899.13;5057271;28;45437;-76
2022/01/16 10:00:33;;;;;;;;;28.00;22.25;;;;;4.79;63.92;102901.00;5054486;28;45432;-77
2022/01/16 10:02:59;;;;;;;;;35.25;25.50;;;;;4.80;64.35;102895.81;5054844;28;45390;-76
2022/01/16 10:05:34;;;;;;;;;30.25;26.00;;;;;4.85;64.13;102908.94;5053444;28;45638;-76
2022/01/16 10:08:03;;;;;;;;;36.50;28.25;;;;;4.86;63.60;102902.91;5054504;28;45535;-76
2022/01/16 10:10:33;;;;;;;;;28.50;25.00;;;;;4.91;63.61;102903.91;5049566;28;45475;-76
2022/01/16 10:13:07;;;;;;;;;30.00;24.00;;;;;4.93;63.75;102910.03;5058622;28;45415;-76
2022/01/16 10:15:33;;;;;;;;;19.00;19.00;;;;;4.94;63.59;102896.16;5058424;28;45228;-76
2022/01/16 10:18:01;;;;;;;;;31.75;27.50;;;;;5.00;63.92;102899.75;5052653;28;45527;-76
2022/01/16 10:20:28;;;;;;;;;30.50;26.75;;;;;5.02;63.60;102898.06;5047071;28;45508;-76
2022/01/16 10:23:01;;;;;;;;;36.75;26.75;;;;;5.03;63.78;102900.75;5044239;28;45420;-76
2022/01/16 10:25:47;;;;;;;;;32.00;23.50;;;;;5.02;63.66;102906.78;5051909;28;45532;-76
2022/01/16 10:28:20;;;;;;;;;28.75;24.25;;;;;5.05;63.88;102900.75;5053009;28;45462;-76
2022/01/16 10:30:49;;;;;;;;;28.25;26.00;;;;;5.11;63.66;102907.88;5058173;28;45634;-76
2022/01/16 10:33:17;;;;;;;;;30.50;23.50;;;;;5.15;63.90;102900.16;5058770;28;45498;-76
2022/01/16 10:35:44;;;;;;;;;30.75;27.25;;;;;5.21;63.79;102914.19;5059122;28;45224;-76
2022/01/16 10:38:15;;;;;;;;;25.25;22.75;;;;;5.22;63.42;102901.19;5057699;28;45477;-76
2022/01/16 10:40:41;;;;;;;;;34.50;27.00;;;;;5.22;63.79;102906.41;5059098;28;45204;-76
2022/01/16 10:43:13;;;;;;;;;27.25;25.25;;;;;5.23;63.46;102895.13;5059105;28;45293;-77
2022/01/16 10:45:40;;;;;;;;;26.50;24.50;;;;;5.21;63.63;102896.81;5058919;28;45458;-78
2022/01/16 10:48:06;;;;;;;;;34.00;28.75;;;;;5.25;63.47;102905.59;5057867;28;45177;-76
2022/01/16 10:50:49;;;;;;;;;19.25;16.75;;;;;5.29;65.89;102899.59;5059150;28;45346;-77
2022/01/16 10:53:16;;;;;;;;;28.25;21.75;;;;;5.40;63.69;102903.38;5046067;28;45497;-77
2022/01/16 10:56:11;;;;;;;;;30.75;23.75;;;;;5.60;64.25;102904.69;5054316;28;45827;-78
2022/01/16 10:58:36;;;;;;;;;23.50;21.00;;;;;5.80;64.49;102897.28;5049734;28;45547;-78
2022/01/16 11:01:09;;;;;;;;;26.67;20.33;;;;;6.02;64.05;102891.66;5055543;28;45546;-78
2022/01/16 11:03:40;;;;;;;;;28.50;27.25;;;;;6.29;63.82;102891.38;5057495;28;48393;-78
2022/01/16 11:06:06;;;;;;;;;27.50;22.75;;;;;6.56;62.07;102894.50;5058719;28;46053;-78
2022/01/16 11:08:32;;;;;;;;;22.00;19.50;;;;;6.80;62.48;102897.50;5056125;28;45601;-78
2022/01/16 11:10:59;;;;;;;;;24.50;20.50;;;;;7.00;61.79;102892.63;5054577;28;45423;-78
2022/01/16 11:13:30;;;;;;;;;25.00;20.25;;;;;7.18;61.36;102899.94;5058329;28;46379;-78
2022/01/16 11:15:58;;;;;;;;;26.25;23.25;;;;;7.41;61.30;102899.38;5054606;27;46054;-78
2022/01/16 11:18:25;;;;;;;;;32.25;25.75;;;;;7.63;60.04;102891.84;5056778;28;45354;-78
2022/01/16 11:21:14;;;;;;;;;27.25;23.50;;;;;7.71;60.44;102885.84;5052855;28;45431;-78
2022/01/16 11:26:22;;;;;;;;;27.75;24.25;;;;;7.95;59.88;102897.53;5063274;28;45504;-77
2022/01/16 11:28:50;;;;;;;;;26.25;24.00;;;;;8.07;59.75;102889.84;5061546;28;45348;-78
2022/01/16 11:31:16;;;;;;;;;24.75;23.00;;;;;8.22;58.75;102877.78;5056549;28;47510;-78
2022/01/16 11:33:43;;;;;;;;;25.50;23.75;;;;;8.28;59.12;102874.31;5059311;28;45511;-77
2022/01/16 11:36:19;;;;;;;;;22.50;21.75;;;;;8.35;58.80;102890.97;5064188;28;45957;-77
2022/01/16 11:38:46;;;;;;;;;29.50;26.00;;;;;8.36;59.25;102895.38;5061281;28;45529;-77
2022/01/16 11:41:14;;;;;;;;;27.50;22.75;;;;;8.29;59.06;102895.31;5060876;28;45387;-77
2022/01/16 11:43:44;;;;;;;;;31.25;25.25;;;;;8.26;58.86;102897.91;5076009;27;46051;-77
2022/01/16 11:46:20;;;;;;;;;23.25;19.25;;;;;8.26;58.84;102890.03;5062222;27;45880;-77
2022/01/16 11:48:47;;;;;;;;;28.00;23.50;;;;;8.25;58.72;102879.56;5056954;28;45461;-77
2022/01/16 11:51:31;;;;;;;;;26.25;23.25;;;;;8.23;58.65;102879.50;5059830;28;45477;-80
2022/01/16 11:54:24;;;;;;;;;25.25;25.00;;;;;8.16;58.57;102886.44;5054771;28;45536;-80
2022/01/16 11:56:58;;;;;;;;;29.00;22.25;;;;;7.99;58.44;102888.84;5060281;28;45536;-80
2022/01/16 11:59:24;;;;;;;;;27.25;21.75;;;;;7.92;59.03;102897.47;5059198;28;45405;-80